Time;durP1;ratioP1;P1;durP2;ratioP2;P2;SDS_P1;SDS_P2;PMS_P1;PMS_P2;Temp;Humidity;BMP_temperature;BMP_pressure;BME280_temperature;BME280_humidity;BME280_pressure;Samples;Min_cycle;Max_cycle;Signal;HPM_P1;HPM_P2
2023/06/13 00:01:04;;;;;;;9.23;5.90;;;;;;;;;;5054368;28;20919;-60
2023/06/13 00:03:30;;;;;;;6.10;5.70;;;;;;;;;;5054482;28;20879;-57
2023/06/13 00:06:01;;;;;;;6.50;6.00;;;;;;;;;;5054426;28;20804;-57
2023/06/13 00:08:27;;;;;;;5.90;5.50;;;;;;;;;;5054173;28;20485;-57
2023/06/13 00:10:53;;;;;;;7.07;6.37;;;;;;;;;;5054573;28;20887;-57
2023/06/13 00:13:19;;;;;;;6.27;5.87;;;;;;;;;;5054272;28;20474;-57
2023/06/13 00:15:49;;;;;;;11.50;5.83;;;;;;;;;;5054325;28;20427;-57
2023/06/13 00:18:16;;;;;;;6.30;5.80;;;;;;;;;;5054538;28;20452;-57
2023/06/13 00:20:42;;;;;;;8.33;5.37;;;;;;;;;;5054328;28;20411;-57
2023/06/13 00:23:08;;;;;;;6.00;5.40;;;;;;;;;;5053074;28;20441;-57
2023/06/13 00:25:35;;;;;;;6.40;6.00;;;;;;;;;;5054072;28;20921;-56
2023/06/13 00:28:01;;;;;;;6.13;5.73;;;;;;;;;;5054100;28;20423;-57
2023/06/13 00:30:27;;;;;;;5.90;5.40;;;;;;;;;;5053880;28;20418;-57
2023/06/13 00:32:56;;;;;;;6.03;5.67;;;;;;;;;;5053763;28;20541;-57
2023/06/13 00:35:22;;;;;;;6.10;5.70;;;;;;;;;;5053694;28;20414;-57
2023/06/13 00:37:54;;;;;;;5.67;5.20;;;;;;;;;;5053655;28;20418;-57
2023/06/13 00:40:22;;;;;;;5.37;4.93;;;;;;;;;;5053853;28;20849;-57
2023/06/13 00:42:48;;;;;;;6.27;5.77;;;;;;;;;;5054107;28;20411;-57
2023/06/13 00:45:24;;;;;;;6.57;5.90;;;;;;;;;;5053631;28;20504;-57
2023/06/13 00:48:02;;;;;;;5.87;5.50;;;;;;;;;;5053861;28;20513;-57
2023/06/13 00:50:32;;;;;;;5.70;5.20;;;;;;;;;;5053564;28;20421;-57
2023/06/13 00:53:03;;;;;;;7.10;5.63;;;;;;;;;;5053274;28;20462;-57
2023/06/13 00:55:31;;;;;;;6.83;5.67;;;;;;;;;;5053496;28;20436;-57
2023/06/13 00:57:58;;;;;;;5.40;5.07;;;;;;;;;;5053489;28;20414;-57
2023/06/13 01:00:26;;;;;;;6.23;5.83;;;;;;;;;;5052035;28;20437;-57
2023/06/13 01:02:57;;;;;;;5.80;5.50;;;;;;;;;;5053393;28;20430;-57
2023/06/13 01:05:26;;;;;;;6.47;5.87;;;;;;;;;;5053419;28;20450;-57
2023/06/13 01:07:57;;;;;;;6.20;5.90;;;;;;;;;;5053433;28;20427;-57
2023/06/13 01:10:24;;;;;;;7.00;6.30;;;;;;;;;;5053159;28;20440;-57
2023/06/13 01:13:00;;;;;;;5.70;5.40;;;;;;;;;;5053224;28;20874;-57
2023/06/13 01:15:26;;;;;;;6.07;5.57;;;;;;;;;;5052899;28;20944;-57
2023/06/13 01:18:00;;;;;;;5.33;5.10;;;;;;;;;;5053148;28;20417;-57
2023/06/13 01:20:28;;;;;;;5.53;5.33;;;;;;;;;;5053099;28;20452;-57
2023/06/13 01:23:06;;;;;;;5.80;5.40;;;;;;;;;;5052972;28;20413;-57
2023/06/13 01:25:57;;;;;;;5.63;5.13;;;;;;;;;;5053119;28;20506;-57
2023/06/13 01:28:24;;;;;;;8.60;5.17;;;;;;;;;;5053361;28;20419;-57
2023/06/13 01:30:51;;;;;;;5.53;5.10;;;;;;;;;;5052837;28;20455;-57
2023/06/13 01:33:21;;;;;;;4.97;4.63;;;;;;;;;;5052913;28;20531;-57
2023/06/13 01:35:47;;;;;;;5.90;5.30;;;;;;;;;;5052452;28;20523;-57
2023/06/13 01:38:14;;;;;;;9.23;4.50;;;;;;;;;;5052598;28;20421;-57
2023/06/13 01:40:40;;;;;;;7.07;4.90;;;;;;;;;;5052766;28;20520;-57
2023/06/13 01:43:09;;;;;;;5.90;5.43;;;;;;;;;;5052585;28;20506;-57
2023/06/13 01:45:35;;;;;;;6.37;5.90;;;;;;;;;;5052614;28;20493;-57
2023/06/13 01:48:11;;;;;;;9.13;4.70;;;;;;;;;;5052595;28;20440;-57
2023/06/13 01:50:42;;;;;;;5.37;4.93;;;;;;;;;;5052108;28;20443;-57
2023/06/13 01:53:10;;;;;;;5.73;5.03;;;;;;;;;;5052598;28;20511;-57
2023/06/13 01:55:40;;;;;;;5.70;5.40;;;;;;;;;;5052102;28;20801;-57
2023/06/13 01:58:20;;;;;;;7.67;4.93;;;;;;;;;;5052264;28;20893;-57
2023/06/13 02:00:46;;;;;;;5.43;5.03;;;;;;;;;;5052699;28;20517;-57
2023/06/13 02:03:13;;;;;;;5.80;5.50;;;;;;;;;;5052621;28;20483;-57
2023/06/13 02:05:39;;;;;;;5.50;5.00;;;;;;;;;;5052334;28;20447;-57
2023/06/13 02:08:06;;;;;;;5.90;5.40;;;;;;;;;;5052398;28;20421;-57
2023/06/13 02:10:35;;;;;;;5.50;5.10;;;;;;;;;;5052302;28;20547;-56
2023/06/13 02:13:01;;;;;;;5.63;5.23;;;;;;;;;;5052282;28;20466;-57
2023/06/13 02:15:29;;;;;;;7.10;5.00;;;;;;;;;;5052351;28;20481;-57
2023/06/13 02:17:58;;;;;;;6.43;6.03;;;;;;;;;;5052040;28;20441;-57
2023/06/13 02:20:26;;;;;;;5.63;5.10;;;;;;;;;;5050845;28;20445;-57
2023/06/13 02:22:52;;;;;;;5.47;5.10;;;;;;;;;;5052387;28;20419;-57
2023/06/13 02:25:18;;;;;;;5.40;5.00;;;;;;;;;;5051924;28;20490;-57
2023/06/13 02:27:44;;;;;;;5.33;5.13;;;;;;;;;;5052156;28;20446;-57
2023/06/13 02:30:11;;;;;;;7.23;5.60;;;;;;;;;;5052197;28;20425;-57
2023/06/13 02:32:39;;;;;;;5.67;5.37;;;;;;;;;;5051909;28;20416;-57
2023/06/13 02:35:05;;;;;;;5.43;5.03;;;;;;;;;;5052474;28;20417;-57
2023/06/13 02:37:31;;;;;;;5.10;4.90;;;;;;;;;;5052074;28;20502;-57
2023/06/13 02:39:57;;;;;;;5.97;5.67;;;;;;;;;;5052078;28;20462;-57
2023/06/13 02:42:23;;;;;;;6.10;5.70;;;;;;;;;;5052116;28;20413;-58
2023/06/13 02:44:49;;;;;;;5.80;5.30;;;;;;;;;;5052145;28;20447;-58
2023/06/13 02:47:15;;;;;;;4.90;4.67;;;;;;;;;;5052019;28;20432;-59
2023/06/13 02:49:41;;;;;;;5.27;4.87;;;;;;;;;;5052065;28;20420;-58
2023/06/13 02:52:10;;;;;;;5.03;4.80;;;;;;;;;;5052094;28;20421;-58
2023/06/13 02:54:36;;;;;;;4.43;4.23;;;;;;;;;;5051817;28;20616;-59
2023/06/13 02:57:02;;;;;;;4.80;4.60;;;;;;;;;;5052024;28;20410;-59
2023/06/13 02:59:28;;;;;;;4.97;4.67;;;;;;;;;;5051939;28;20538;-59
2023/06/13 03:01:54;;;;;;;5.17;4.83;;;;;;;;;;5053027;28;20438;-59
2023/06/13 03:04:20;;;;;;;5.30;4.97;;;;;;;;;;5055824;28;20427;-59
2023/06/13 03:06:46;;;;;;;5.47;5.00;;;;;;;;;;5055639;28;20408;-59
2023/06/13 03:09:12;;;;;;;4.97;4.67;;;;;;;;;;5055934;28;20418;-58
2023/06/13 03:11:38;;;;;;;4.87;4.33;;;;;;;;;;5055777;28;20850;-58
2023/06/13 03:14:04;;;;;;;5.00;4.70;;;;;;;;;;5055533;28;20553;-58
2023/06/13 03:16:31;;;;;;;5.00;4.80;;;;;;;;;;5055353;28;20822;-58
2023/06/13 03:18:57;;;;;;;4.63;4.23;;;;;;;;;;5054311;28;20514;-58
2023/06/13 03:21:25;;;;;;;4.70;4.50;;;;;;;;;;5055524;28;20853;-59
2023/06/13 03:23:51;;;;;;;4.83;4.53;;;;;;;;;;5053878;28;20432;-59
2023/06/13 03:26:17;;;;;;;5.43;4.93;;;;;;;;;;5055345;28;20442;-59
2023/06/13 03:28:43;;;;;;;4.93;4.73;;;;;;;;;;5055162;28;20424;-59
2023/06/13 03:31:11;;;;;;;7.90;4.70;;;;;;;;;;5055251;28;20471;-59
2023/06/13 03:33:37;;;;;;;5.00;4.60;;;;;;;;;;5055001;28;20463;-59
2023/06/13 03:36:03;;;;;;;4.77;4.57;;;;;;;;;;5055305;28;20769;-59
2023/06/13 03:38:29;;;;;;;5.30;4.90;;;;;;;;;;5055102;28;20423;-59
2023/06/13 03:40:55;;;;;;;5.03;4.57;;;;;;;;;;5055171;28;20834;-58
2023/06/13 03:43:23;;;;;;;4.90;4.70;;;;;;;;;;5054017;28;20413;-59
2023/06/13 03:45:52;;;;;;;4.70;4.30;;;;;;;;;;5054904;28;20520;-59
2023/06/13 03:48:18;;;;;;;6.60;4.90;;;;;;;;;;5054987;28;20506;-58
2023/06/13 03:50:44;;;;;;;4.83;4.43;;;;;;;;;;5054965;28;20499;-58
2023/06/13 03:53:10;;;;;;;5.27;4.93;;;;;;;;;;5055031;28;20518;-58
2023/06/13 03:55:36;;;;;;;4.63;4.33;;;;;;;;;;5054770;28;20683;-59
2023/06/13 03:58:02;;;;;;;4.90;4.47;;;;;;;;;;5054943;28;20767;-58
2023/06/13 04:00:32;;;;;;;4.83;4.43;;;;;;;;;;5054847;28;20435;-58
2023/06/13 04:03:00;;;;;;;4.63;4.43;;;;;;;;;;5054232;28;21089;-58
2023/06/13 04:05:26;;;;;;;5.00;4.70;;;;;;;;;;5054500;28;20487;-58
2023/06/13 04:07:57;;;;;;;4.20;4.00;;;;;;;;;;5054471;28;20504;-59
2023/06/13 04:10:23;;;;;;;5.40;4.30;;;;;;;;;;5054342;28;20436;-58
2023/06/13 04:12:49;;;;;;;4.77;4.47;;;;;;;;;;5053742;28;20407;-58
2023/06/13 04:15:17;;;;;;;4.23;4.00;;;;;;;;;;5053947;28;20779;-58
2023/06/13 04:17:43;;;;;;;6.23;5.40;;;;;;;;;;5052942;28;20424;-58
2023/06/13 04:20:14;;;;;;;5.53;5.00;;;;;;;;;;5054269;28;20926;-58
2023/06/13 04:22:42;;;;;;;12.03;4.33;;;;;;;;;;5054323;28;20421;-58
2023/06/13 04:25:10;;;;;;;4.83;4.63;;;;;;;;;;5054166;28;20466;-58
2023/06/13 04:27:38;;;;;;;4.10;4.00;;;;;;;;;;5053884;28;20480;-58
2023/06/13 04:30:04;;;;;;;4.53;4.30;;;;;;;;;;5053718;28;20409;-58
2023/06/13 04:32:33;;;;;;;4.37;4.17;;;;;;;;;;5053939;28;20437;-58
2023/06/13 04:35:00;;;;;;;4.43;4.20;;;;;;;;;;5053748;28;20432;-58
2023/06/13 04:37:26;;;;;;;4.17;4.07;;;;;;;;;;5053923;28;20754;-58
2023/06/13 04:39:53;;;;;;;7.33;6.80;;;;;;;;;;5052609;28;20411;-58
2023/06/13 04:42:27;;;;;;;4.57;4.17;;;;;;;;;;5053474;28;20787;-58
2023/06/13 04:44:53;;;;;;;4.63;4.17;;;;;;;;;;5053669;28;20411;-58
2023/06/13 04:47:20;;;;;;;4.77;4.47;;;;;;;;;;5052396;28;20441;-58
2023/06/13 04:49:46;;;;;;;4.50;4.30;;;;;;;;;;5053902;28;20498;-58
2023/06/13 04:52:15;;;;;;;3.93;3.83;;;;;;;;;;5052290;28;20450;-58
2023/06/13 04:54:41;;;;;;;3.73;3.63;;;;;;;;;;5053200;28;20460;-58
2023/06/13 04:57:10;;;;;;;4.63;4.23;;;;;;;;;;5053534;28;20858;-58
2023/06/13 04:59:38;;;;;;;5.00;4.60;;;;;;;;;;5053389;28;20416;-58
2023/06/13 05:02:04;;;;;;;6.10;4.57;;;;;;;;;;5053470;28;20438;-59
2023/06/13 05:04:31;;;;;;;7.17;4.20;;;;;;;;;;5052494;28;20936;-58
2023/06/13 05:06:59;;;;;;;5.73;4.80;;;;;;;;;;5051854;28;20423;-58
2023/06/13 05:09:27;;;;;;;3.90;3.80;;;;;;;;;;5053309;28;20988;-58
2023/06/13 05:11:56;;;;;;;4.33;3.97;;;;;;;;;;5053157;28;20444;-58
2023/06/13 05:14:24;;;;;;;5.37;4.40;;;;;;;;;;5052826;28;20470;-58
2023/06/13 05:16:55;;;;;;;4.40;4.20;;;;;;;;;;5053118;28;20458;-59
2023/06/13 05:19:21;;;;;;;4.30;4.00;;;;;;;;;;5051658;28;20999;-58
2023/06/13 05:21:47;;;;;;;4.70;4.50;;;;;;;;;;5053136;28;20413;-58
2023/06/13 05:24:13;;;;;;;7.10;4.70;;;;;;;;;;5050953;28;20417;-58
2023/06/13 05:26:42;;;;;;;5.87;4.63;;;;;;;;;;5052711;28;20460;-59
2023/06/13 05:29:08;;;;;;;5.87;4.67;;;;;;;;;;5052785;28;20422;-58
2023/06/13 05:31:36;;;;;;;4.97;4.67;;;;;;;;;;5051528;28;20427;-58
2023/06/13 05:34:04;;;;;;;7.70;5.20;;;;;;;;;;5052732;28;20608;-59
2023/06/13 05:36:38;;;;;;;5.13;4.80;;;;;;;;;;5052727;28;20524;-58
2023/06/13 05:39:04;;;;;;;6.93;4.47;;;;;;;;;;5052800;28;20411;-59
2023/06/13 05:41:30;;;;;;;5.73;4.93;;;;;;;;;;5052491;28;20500;-59
2023/06/13 05:44:00;;;;;;;5.30;4.80;;;;;;;;;;5052495;28;20508;-59
2023/06/13 05:46:29;;;;;;;6.83;5.50;;;;;;;;;;5052511;28;20444;-59
2023/06/13 05:48:55;;;;;;;4.97;4.67;;;;;;;;;;5052401;28;20421;-59
2023/06/13 05:51:21;;;;;;;5.50;5.10;;;;;;;;;;5052454;28;20426;-58
2023/06/13 05:53:47;;;;;;;5.70;5.17;;;;;;;;;;5052355;28;20471;-59
2023/06/13 05:56:13;;;;;;;4.70;4.40;;;;;;;;;;5051864;28;20790;-58
2023/06/13 05:58:41;;;;;;;5.50;5.03;;;;;;;;;;5052497;28;20412;-59
2023/06/13 06:01:10;;;;;;;5.37;4.97;;;;;;;;;;5051953;28;20420;-58
2023/06/13 06:03:36;;;;;;;6.13;5.63;;;;;;;;;;5052519;28;20409;-58
2023/06/13 06:06:04;;;;;;;5.30;4.90;;;;;;;;;;5052257;28;20479;-59
2023/06/13 06:08:30;;;;;;;5.20;4.90;;;;;;;;;;5052273;28;20437;-59
2023/06/13 06:10:56;;;;;;;5.83;5.27;;;;;;;;;;5052460;28;20997;-59
2023/06/13 06:13:22;;;;;;;5.47;4.97;;;;;;;;;;5052414;28;20595;-59
2023/06/13 06:15:48;;;;;;;4.77;4.47;;;;;;;;;;5052277;28;20436;-59
2023/06/13 06:18:14;;;;;;;5.43;5.03;;;;;;;;;;5052370;28;20438;-58
2023/06/13 06:20:40;;;;;;;5.20;4.80;;;;;;;;;;5052311;28;20415;-59
2023/06/13 06:23:06;;;;;;;6.03;5.63;;;;;;;;;;5052297;28;20433;-58
2023/06/13 06:25:33;;;;;;;4.93;4.73;;;;;;;;;;5052223;28;20415;-59
2023/06/13 06:28:01;;;;;;;7.00;4.87;;;;;;;;;;5052189;28;20450;-58
2023/06/13 06:30:28;;;;;;;11.73;4.67;;;;;;;;;;5052093;28;20425;-58
2023/06/13 06:32:55;;;;;;;5.67;4.70;;;;;;;;;;5052134;28;20444;-58
2023/06/13 06:35:21;;;;;;;4.80;4.40;;;;;;;;;;5052594;28;20490;-58
2023/06/13 06:37:49;;;;;;;4.63;4.43;;;;;;;;;;5056436;28;20986;-59
2023/06/13 06:40:15;;;;;;;4.60;4.40;;;;;;;;;;5056136;28;20443;-58
2023/06/13 06:42:43;;;;;;;5.03;4.73;;;;;;;;;;5056035;28;20464;-59
2023/06/13 06:45:10;;;;;;;5.87;5.10;;;;;;;;;;5055892;28;20409;-58
2023/06/13 06:47:36;;;;;;;5.67;5.27;;;;;;;;;;5056108;28;20489;-59
2023/06/13 06:50:02;;;;;;;14.83;4.73;;;;;;;;;;5056050;28;20499;-58
2023/06/13 06:52:28;;;;;;;4.80;4.50;;;;;;;;;;5054511;28;20824;-59
2023/06/13 06:54:55;;;;;;;5.60;5.30;;;;;;;;;;5055805;28;20462;-59
2023/06/13 06:57:21;;;;;;;6.00;4.17;;;;;;;;;;5055594;28;20518;-59
2023/06/13 06:59:47;;;;;;;4.40;4.20;;;;;;;;;;5055775;28;20890;-59
2023/06/13 07:02:13;;;;;;;8.30;4.07;;;;;;;;;;5055684;28;20573;-58
2023/06/13 07:04:39;;;;;;;4.83;4.57;;;;;;;;;;5055644;28;20459;-58
2023/06/13 07:07:05;;;;;;;4.17;3.87;;;;;;;;;;5055733;28;20431;-59
2023/06/13 07:09:33;;;;;;;10.83;9.03;;;;;;;;;;5055459;28;20481;-59
2023/06/13 07:11:59;;;;;;;30.37;17.30;;;;;;;;;;5055312;28;20521;-59
2023/06/13 07:14:25;;;;;;;5.57;4.13;;;;;;;;;;5055416;28;20554;-59
2023/06/13 07:16:54;;;;;;;5.53;4.20;;;;;;;;;;5055393;28;20419;-59
2023/06/13 07:19:20;;;;;;;4.87;4.00;;;;;;;;;;5055725;28;20895;-59
2023/06/13 07:21:46;;;;;;;7.70;4.53;;;;;;;;;;5054941;28;20420;-58
2023/06/13 07:24:12;;;;;;;4.00;3.90;;;;;;;;;;5055383;28;20412;-59
2023/06/13 07:26:38;;;;;;;4.50;4.17;;;;;;;;;;5055319;28;20500;-59
2023/06/13 07:29:04;;;;;;;5.67;3.57;;;;;;;;;;5055194;28;20494;-59
2023/06/13 07:31:30;;;;;;;5.17;3.90;;;;;;;;;;5055243;28;21007;-58
2023/06/13 07:33:56;;;;;;;4.10;3.90;;;;;;;;;;5054962;28;20457;-59
2023/06/13 07:36:22;;;;;;;4.13;3.80;;;;;;;;;;5055176;28;20439;-58
2023/06/13 07:38:48;;;;;;;5.60;3.73;;;;;;;;;;5054803;28;20958;-59
2023/06/13 07:41:17;;;;;;;5.40;4.17;;;;;;;;;;5054723;28;20492;-58
2023/06/13 07:43:43;;;;;;;4.33;4.03;;;;;;;;;;5054855;28;20929;-58
2023/06/13 07:46:09;;;;;;;8.53;3.87;;;;;;;;;;5054779;28;20510;-58
2023/06/13 07:48:37;;;;;;;3.87;3.67;;;;;;;;;;5053971;28;20445;-58
2023/06/13 07:51:05;;;;;;;5.23;3.60;;;;;;;;;;5054736;28;20424;-58
2023/06/13 07:53:31;;;;;;;3.73;3.50;;;;;;;;;;5054323;28;20461;-59
2023/06/13 07:55:57;;;;;;;3.73;3.53;;;;;;;;;;5054725;28;20943;-59
2023/06/13 07:58:23;;;;;;;4.33;4.03;;;;;;;;;;5054362;28;20418;-58
2023/06/13 08:00:50;;;;;;;4.93;3.70;;;;;;;;;;5054285;28;20410;-59
2023/06/13 08:03:16;;;;;;;4.87;3.50;;;;;;;;;;5054681;28;20515;-59
2023/06/13 08:05:42;;;;;;;4.67;4.30;;;;;;;;;;5054486;28;20920;-58
2023/06/13 08:08:10;;;;;;;11.00;3.77;;;;;;;;;;5054509;28;20418;-59
2023/06/13 08:10:36;;;;;;;4.07;3.70;;;;;;;;;;5054180;28;20415;-59
2023/06/13 08:13:05;;;;;;;3.60;3.43;;;;;;;;;;5054372;28;20549;-59
2023/06/13 08:15:33;;;;;;;4.33;3.83;;;;;;;;;;5054531;28;20416;-59
2023/06/13 08:17:59;;;;;;;4.17;3.90;;;;;;;;;;5054326;28;20439;-59
2023/06/13 08:20:25;;;;;;;5.13;4.00;;;;;;;;;;5054491;28;20404;-58
2023/06/13 08:22:51;;;;;;;8.90;4.00;;;;;;;;;;5054176;28;20430;-59
2023/06/13 08:25:17;;;;;;;6.73;3.70;;;;;;;;;;5054278;28;20421;-59
2023/06/13 08:27:44;;;;;;;9.37;4.27;;;;;;;;;;5054135;28;20904;-59
2023/06/13 08:30:13;;;;;;;4.07;3.80;;;;;;;;;;5053804;28;20440;-59
2023/06/13 08:32:41;;;;;;;4.37;4.17;;;;;;;;;;5053971;28;20447;-59
2023/06/13 08:35:08;;;;;;;3.40;3.20;;;;;;;;;;5052727;28;20465;-59
2023/06/13 08:37:34;;;;;;;4.50;3.60;;;;;;;;;;5053902;28;20434;-59
2023/06/13 08:40:04;;;;;;;3.70;3.40;;;;;;;;;;5053951;28;20493;-59
2023/06/13 08:42:34;;;;;;;4.33;4.13;;;;;;;;;;5054078;28;20832;-59
2023/06/13 08:45:02;;;;;;;4.73;3.83;;;;;;;;;;5053457;28;20440;-59
2023/06/13 08:47:28;;;;;;;3.63;3.53;;;;;;;;;;5053556;28;20430;-59
2023/06/13 08:49:55;;;;;;;6.97;3.50;;;;;;;;;;5053770;28;20417;-59
2023/06/13 08:52:21;;;;;;;3.87;3.57;;;;;;;;;;5053538;28;20417;-59
2023/06/13 08:54:50;;;;;;;3.57;3.37;;;;;;;;;;5053109;28;20532;-59
2023/06/13 08:57:16;;;;;;;4.47;4.27;;;;;;;;;;5053516;28;20465;-58
2023/06/13 08:59:46;;;;;;;6.73;4.13;;;;;;;;;;5053670;28;20419;-59
2023/06/13 09:02:15;;;;;;;4.57;4.27;;;;;;;;;;5053367;28;20467;-58
2023/06/13 09:04:43;;;;;;;4.20;3.90;;;;;;;;;;5053456;28;20441;-59
2023/06/13 09:07:10;;;;;;;4.50;4.20;;;;;;;;;;5052950;28;20408;-59
2023/06/13 09:09:37;;;;;;;4.10;3.90;;;;;;;;;;5053285;28;20430;-59
2023/06/13 09:12:06;;;;;;;6.73;3.70;;;;;;;;;;5053388;28;20440;-59
2023/06/13 09:14:32;;;;;;;4.00;3.80;;;;;;;;;;5053217;28;20470;-59
2023/06/13 09:16:58;;;;;;;3.97;3.87;;;;;;;;;;5053083;28;20788;-59
2023/06/13 09:19:24;;;;;;;11.67;3.57;;;;;;;;;;5052803;28;20448;-59
2023/06/13 09:21:52;;;;;;;3.67;3.43;;;;;;;;;;5052919;28;20418;-58
2023/06/13 09:24:21;;;;;;;4.50;4.20;;;;;;;;;;5052950;28;20831;-58
2023/06/13 09:26:48;;;;;;;4.50;3.30;;;;;;;;;;5053209;28;20439;-58
2023/06/13 09:29:13;;;;;;;5.17;3.90;;;;;;;;;;5051801;28;20443;-58
2023/06/13 09:31:40;;;;;;;4.27;3.97;;;;;;;;;;5052715;28;20423;-59
2023/06/13 09:34:06;;;;;;;4.00;3.60;;;;;;;;;;5052738;28;20473;-59
2023/06/13 09:36:35;;;;;;;6.40;3.87;;;;;;;;;;5053035;28;20435;-58
2023/06/13 09:39:06;;;;;;;3.87;3.67;;;;;;;;;;5053008;28;20408;-59
2023/06/13 09:41:35;;;;;;;5.27;3.87;;;;;;;;;;5052917;28;20484;-59
2023/06/13 09:44:06;;;;;;;3.97;3.67;;;;;;;;;;5052412;28;20493;-59
2023/06/13 09:46:35;;;;;;;4.43;3.90;;;;;;;;;;5052418;28;20485;-59
2023/06/13 09:49:02;;;;;;;3.47;3.37;;;;;;;;;;5052588;28;20794;-59
2023/06/13 09:51:29;;;;;;;3.80;3.63;;;;;;;;;;5052689;28;20857;-58
2023/06/13 09:53:55;;;;;;;4.20;4.00;;;;;;;;;;5052631;28;21026;-59
2023/06/13 09:56:24;;;;;;;4.50;4.10;;;;;;;;;;5052398;28;20496;-59
2023/06/13 09:58:51;;;;;;;5.00;3.90;;;;;;;;;;5052386;28;20404;-58
2023/06/13 10:01:20;;;;;;;7.33;3.90;;;;;;;;;;5052242;28;20457;-58
2023/06/13 10:03:46;;;;;;;4.10;3.90;;;;;;;;;;5052443;28;20449;-59
2023/06/13 10:06:12;;;;;;;4.10;4.00;;;;;;;;;;5052520;28;20408;-59
2023/06/13 10:08:38;;;;;;;3.40;3.30;;;;;;;;;;5052761;28;20413;-58
2023/06/13 10:11:09;;;;;;;4.23;3.43;;;;;;;;;;5052296;28;20459;-58
2023/06/13 10:13:54;;;;;;;3.80;3.50;;;;;;;;;;5052256;28;20511;-58
2023/06/13 10:16:21;;;;;;;3.97;3.57;;;;;;;;;;5052233;28;20413;-58
2023/06/13 10:18:48;;;;;;;3.77;3.57;;;;;;;;;;5052180;28;20436;-58
2023/06/13 10:21:16;;;;;;;3.87;3.57;;;;;;;;;;5052239;28;20792;-58
2023/06/13 10:23:49;;;;;;;6.10;4.07;;;;;;;;;;5052178;28;20560;-58
2023/06/13 10:26:21;;;;;;;4.30;3.90;;;;;;;;;;5052193;28;20489;-58
2023/06/13 10:28:50;;;;;;;4.00;3.80;;;;;;;;;;5051875;28;20704;-58
2023/06/13 10:31:30;;;;;;;3.50;3.40;;;;;;;;;;5052062;28;20412;-58
2023/06/13 10:33:56;;;;;;;3.83;3.57;;;;;;;;;;5051935;28;20469;-58
2023/06/13 10:36:35;;;;;;;4.03;3.83;;;;;;;;;;5052134;28;20427;-58
2023/06/13 10:39:21;;;;;;;9.03;3.77;;;;;;;;;;5052859;28;20439;-58
2023/06/13 10:41:54;;;;;;;4.20;3.70;;;;;;;;;;5052019;28;20420;-58
2023/06/13 10:44:24;;;;;;;4.30;3.87;;;;;;;;;;5051927;28;20899;-58
2023/06/13 10:46:52;;;;;;;3.80;3.50;;;;;;;;;;5051947;28;20425;-58
2023/06/13 10:49:19;;;;;;;3.87;3.77;;;;;;;;;;5052118;28;20426;-59
2023/06/13 10:51:48;;;;;;;4.00;3.70;;;;;;;;;;5052004;28;20450;-59
2023/06/13 10:54:15;;;;;;;4.40;3.53;;;;;;;;;;5051389;28;20478;-58
2023/06/13 10:56:43;;;;;;;3.60;3.33;;;;;;;;;;5051938;28;20417;-58
2023/06/13 10:59:10;;;;;;;3.47;3.20;;;;;;;;;;5050638;28;20430;-58
2023/06/13 11:01:37;;;;;;;4.27;4.07;;;;;;;;;;5051626;28;20445;-58
2023/06/13 11:04:09;;;;;;;3.90;3.70;;;;;;;;;;5051861;28;20444;-58
2023/06/13 11:06:35;;;;;;;3.77;3.63;;;;;;;;;;5051749;28;20428;-58
2023/06/13 11:09:28;;;;;;;3.77;3.67;;;;;;;;;;5051730;28;20519;-58
2023/06/13 11:11:57;;;;;;;3.50;3.30;;;;;;;;;;5050562;28;20429;-58
2023/06/13 11:14:26;;;;;;;12.90;3.30;;;;;;;;;;5051865;28;20478;-58
2023/06/13 11:16:52;;;;;;;4.93;3.90;;;;;;;;;;5052138;28;20832;-58
2023/06/13 11:19:26;;;;;;;3.70;3.47;;;;;;;;;;5051634;28;20493;-58
2023/06/13 11:22:15;;;;;;;3.60;3.43;;;;;;;;;;5050402;28;20420;-58
2023/06/13 11:24:42;;;;;;;8.33;3.53;;;;;;;;;;5055200;28;20483;-58
2023/06/13 11:27:10;;;;;;;4.17;3.67;;;;;;;;;;5055327;28;20475;-59
2023/06/13 11:29:41;;;;;;;3.60;3.40;;;;;;;;;;5055376;28;20806;-58
2023/06/13 11:32:16;;;;;;;3.83;3.57;;;;;;;;;;5055617;28;20423;-58
2023/06/13 11:34:43;;;;;;;3.73;3.43;;;;;;;;;;5054819;28;20478;-58
2023/06/13 11:37:31;;;;;;;17.00;3.80;;;;;;;;;;5055446;28;20458;-58
2023/06/13 11:39:58;;;;;;;4.10;3.77;;;;;;;;;;5055004;28;20438;-59
2023/06/13 11:42:28;;;;;;;3.77;3.47;;;;;;;;;;5055142;28;20410;-59
2023/06/13 11:44:54;;;;;;;6.10;3.63;;;;;;;;;;5054815;28;20431;-58
2023/06/13 11:47:20;;;;;;;7.87;4.20;;;;;;;;;;5054515;28;20886;-59
2023/06/13 11:49:56;;;;;;;5.50;3.60;;;;;;;;;;5054889;28;20438;-58
2023/06/13 11:52:23;;;;;;;3.80;3.50;;;;;;;;;;5054741;28;20410;-59
2023/06/13 11:54:49;;;;;;;3.67;3.40;;;;;;;;;;5054695;28;20552;-59
2023/06/13 11:57:15;;;;;;;4.13;3.70;;;;;;;;;;5054943;28;20407;-58
2023/06/13 11:59:41;;;;;;;9.47;3.57;;;;;;;;;;5054223;28;20435;-58
2023/06/13 12:02:10;;;;;;;3.97;3.77;;;;;;;;;;5054671;28;20442;-58
2023/06/13 12:04:39;;;;;;;3.93;3.83;;;;;;;;;;5054572;28;20441;-59
2023/06/13 12:07:07;;;;;;;3.97;3.67;;;;;;;;;;5054488;28;20453;-59
2023/06/13 12:09:33;;;;;;;3.50;3.30;;;;;;;;;;5054293;28;20417;-59
2023/06/13 12:11:59;;;;;;;3.37;2.97;;;;;;;;;;5054412;28;20407;-59
2023/06/13 12:14:25;;;;;;;4.60;3.30;;;;;;;;;;5053755;28;20808;-59
2023/06/13 12:16:53;;;;;;;8.27;3.90;;;;;;;;;;5054283;28;20506;-59
2023/06/13 12:19:22;;;;;;;4.47;4.03;;;;;;;;;;5053996;28;20407;-59
2023/06/13 12:21:58;;;;;;;5.90;3.00;;;;;;;;;;5054174;28;20433;-59
2023/06/13 12:24:27;;;;;;;4.20;3.90;;;;;;;;;;5054306;28;20434;-59
2023/06/13 12:26:53;;;;;;;4.00;3.70;;;;;;;;;;5052956;28;20434;-59
2023/06/13 12:29:23;;;;;;;3.33;3.23;;;;;;;;;;5054083;28;20449;-59
2023/06/13 12:31:49;;;;;;;4.27;3.93;;;;;;;;;;5054040;28;20438;-59
2023/06/13 12:34:29;;;;;;;3.20;3.07;;;;;;;;;;5053440;28;20985;-58
2023/06/13 12:37:02;;;;;;;5.70;3.60;;;;;;;;;;5053948;28;20924;-58
2023/06/13 12:39:30;;;;;;;3.80;3.60;;;;;;;;;;5053868;28;20815;-59
2023/06/13 12:42:02;;;;;;;3.33;3.17;;;;;;;;;;5053528;28;20445;-59
2023/06/13 12:44:30;;;;;;;7.13;3.40;;;;;;;;;;5053856;28;20551;-59
2023/06/13 12:46:58;;;;;;;4.17;3.77;;;;;;;;;;5052615;28;20423;-59
2023/06/13 12:49:26;;;;;;;3.73;3.53;;;;;;;;;;5053767;28;20777;-58
2023/06/13 12:51:55;;;;;;;3.67;3.47;;;;;;;;;;5052199;28;20411;-59
2023/06/13 12:54:25;;;;;;;10.23;3.67;;;;;;;;;;5052186;28;20470;-59
2023/06/13 12:56:52;;;;;;;3.50;3.37;;;;;;;;;;5053677;28;20423;-59
2023/06/13 12:59:18;;;;;;;3.80;3.50;;;;;;;;;;5053613;28;20772;-59
2023/06/13 13:01:45;;;;;;;4.27;3.50;;;;;;;;;;5053331;28;20438;-59
2023/06/13 13:04:11;;;;;;;3.37;3.27;;;;;;;;;;5053262;28;20441;-59
2023/06/13 13:06:42;;;;;;;3.60;3.30;;;;;;;;;;5053441;28;20414;-59
2023/06/13 13:09:08;;;;;;;3.40;3.23;;;;;;;;;;5053240;28;20417;-59
2023/06/13 13:11:36;;;;;;;6.80;3.10;;;;;;;;;;5053288;28;20489;-59
2023/06/13 13:14:03;;;;;;;3.80;3.43;;;;;;;;;;5053175;28;20218;-59
2023/06/13 13:16:29;;;;;;;3.73;3.50;;;;;;;;;;5053031;28;20435;-59
2023/06/13 13:18:55;;;;;;;3.50;3.20;;;;;;;;;;5053302;28;20902;-59
2023/06/13 13:21:21;;;;;;;3.57;3.47;;;;;;;;;;5051723;28;20443;-59
2023/06/13 13:23:47;;;;;;;3.90;3.53;;;;;;;;;;5051885;28;20782;-59
2023/06/13 13:26:13;;;;;;;3.57;3.47;;;;;;;;;;5053029;28;20506;-59
2023/06/13 13:28:39;;;;;;;3.30;3.10;;;;;;;;;;5052949;28;20418;-59
2023/06/13 13:31:07;;;;;;;9.23;3.77;;;;;;;;;;5052694;28;20192;-59
2023/06/13 13:33:33;;;;;;;8.70;3.60;;;;;;;;;;5052773;28;20287;-58
2023/06/13 13:36:07;;;;;;;4.30;3.30;;;;;;;;;;5051662;28;20997;-59
2023/06/13 13:38:32;;;;;;;3.40;3.10;;;;;;;;;;5052475;28;20430;-58
2023/06/13 13:40:58;;;;;;;4.13;3.60;;;;;;;;;;5053013;28;20764;-58
2023/06/13 13:43:27;;;;;;;3.33;3.13;;;;;;;;;;5053192;28;20419;-58
2023/06/13 13:45:53;;;;;;;3.73;3.53;;;;;;;;;;5051697;28;20412;-58
2023/06/13 13:48:19;;;;;;;4.13;3.77;;;;;;;;;;5052821;28;20509;-59
2023/06/13 13:50:46;;;;;;;3.10;2.80;;;;;;;;;;5050932;28;20415;-59
2023/06/13 13:53:15;;;;;;;3.73;3.43;;;;;;;;;;5052589;28;20419;-59
2023/06/13 13:55:41;;;;;;;4.50;3.10;;;;;;;;;;5052488;28;20963;-59
2023/06/13 13:58:09;;;;;;;4.10;3.63;;;;;;;;;;5052830;28;20407;-58
2023/06/13 14:00:35;;;;;;;3.87;3.57;;;;;;;;;;5052709;28;20831;-58
2023/06/13 14:03:02;;;;;;;3.60;3.50;;;;;;;;;;5052069;28;20446;-58
2023/06/13 14:05:29;;;;;;;4.03;3.30;;;;;;;;;;5052728;28;20482;-58
2023/06/13 14:07:55;;;;;;;6.53;3.30;;;;;;;;;;5052460;28;20840;-59
2023/06/13 14:10:21;;;;;;;3.87;3.57;;;;;;;;;;5052406;28;20431;-58
2023/06/13 14:12:50;;;;;;;4.30;3.50;;;;;;;;;;5052294;28;20505;-59
2023/06/13 14:15:16;;;;;;;3.13;3.03;;;;;;;;;;5052168;28;20476;-58
2023/06/13 14:17:42;;;;;;;5.60;3.23;;;;;;;;;;5052182;28;20429;-59
2023/06/13 14:20:12;;;;;;;3.60;3.40;;;;;;;;;;5056413;28;20491;-59
2023/06/13 14:22:38;;;;;;;7.30;3.77;;;;;;;;;;5058452;28;20433;-59
2023/06/13 14:25:07;;;;;;;4.93;3.13;;;;;;;;;;5058692;28;20441;-59
2023/06/13 14:27:33;;;;;;;4.07;3.77;;;;;;;;;;5057086;28;20498;-58
2023/06/13 14:30:01;;;;;;;5.90;3.50;;;;;;;;;;5069858;28;20431;-59
2023/06/13 14:32:30;;;;;;;6.50;3.90;;;;;;;;;;5075990;28;20481;-59
2023/06/13 14:34:58;;;;;;;3.07;2.97;;;;;;;;;;5074519;28;20498;-58
2023/06/13 14:37:27;;;;;;;4.03;3.60;;;;;;;;;;5074372;28;20442;-58
2023/06/13 14:39:53;;;;;;;4.60;3.87;;;;;;;;;;5052417;28;20426;-59
2023/06/13 14:42:19;;;;;;;4.30;3.63;;;;;;;;;;5052055;28;20772;-59
2023/06/13 14:44:45;;;;;;;9.10;3.07;;;;;;;;;;5051878;28;20411;-59
2023/06/13 14:47:14;;;;;;;5.17;3.50;;;;;;;;;;5050710;28;20446;-59